sensor_id;sensor_type;location;lat;lon;timestamp;P1;durP1;ratioP1;P2;durP2;ratioP2
62925;SDS011;55732;52.248;-0.844;2022-07-04T00:00:12;3.70;;;2.30;;
62925;SDS011;55732;52.248;-0.844;2022-07-04T00:02:38;4.00;;;2.50;;
62925;SDS011;55732;52.248;-0.844;2022-07-04T00:05:06;6.60;;;2.50;;
62925;SDS011;55732;52.248;-0.844;2022-07-04T00:07:38;4.50;;;2.40;;
62925;SDS011;55732;52.248;-0.844;2022-07-04T00:10:05;4.80;;;2.40;;
62925;SDS011;55732;52.248;-0.844;2022-07-04T00:12:32;5.10;;;2.40;;
62925;SDS011;55732;52.248;-0.844;2022-07-04T00:14:58;8.90;;;2.90;;
62925;SDS011;55732;52.248;-0.844;2022-07-04T00:17:24;4.10;;;2.20;;
62925;SDS011;55732;52.248;-0.844;2022-07-04T00:19:49;3.80;;;2.30;;
62925;SDS011;55732;52.248;-0.844;2022-07-04T00:22:14;3.00;;;2.10;;
62925;SDS011;55732;52.248;-0.844;2022-07-04T00:24:40;4.50;;;2.10;;
62925;SDS011;55732;52.248;-0.844;2022-07-04T00:27:05;2.70;;;2.00;;
62925;SDS011;55732;52.248;-0.844;2022-07-04T00:29:31;4.20;;;2.30;;
62925;SDS011;55732;52.248;-0.844;2022-07-04T00:31:58;4.20;;;2.30;;
62925;SDS011;55732;52.248;-0.844;2022-07-04T00:34:24;4.70;;;2.30;;
62925;SDS011;55732;52.248;-0.844;2022-07-04T00:36:50;7.10;;;2.10;;
62925;SDS011;55732;52.248;-0.844;2022-07-04T00:39:15;2.80;;;2.10;;
62925;SDS011;55732;52.248;-0.844;2022-07-04T00:41:41;4.40;;;2.50;;
62925;SDS011;55732;52.248;-0.844;2022-07-04T00:44:07;4.10;;;2.40;;
62925;SDS011;55732;52.248;-0.844;2022-07-04T00:46:36;3.40;;;2.20;;
62925;SDS011;55732;52.248;-0.844;2022-07-04T00:49:05;5.20;;;2.40;;
62925;SDS011;55732;52.248;-0.844;2022-07-04T00:51:32;3.60;;;1.90;;
62925;SDS011;55732;52.248;-0.844;2022-07-04T00:53:58;3.50;;;2.20;;
62925;SDS011;55732;52.248;-0.844;2022-07-04T00:56:24;4.50;;;2.10;;
62925;SDS011;55732;52.248;-0.844;2022-07-04T00:58:51;3.50;;;2.00;;
62925;SDS011;55732;52.248;-0.844;2022-07-04T01:01:18;6.50;;;2.20;;
62925;SDS011;55732;52.248;-0.844;2022-07-04T01:03:44;3.80;;;2.10;;
62925;SDS011;55732;52.248;-0.844;2022-07-04T01:06:13;6.00;;;2.80;;
62925;SDS011;55732;52.248;-0.844;2022-07-04T01:08:41;4.20;;;2.30;;
62925;SDS011;55732;52.248;-0.844;2022-07-04T01:11:07;3.10;;;2.20;;
62925;SDS011;55732;52.248;-0.844;2022-07-04T01:13:34;2.70;;;2.20;;
62925;SDS011;55732;52.248;-0.844;2022-07-04T01:16:01;3.30;;;2.10;;
62925;SDS011;55732;52.248;-0.844;2022-07-04T01:18:26;4.40;;;2.20;;
62925;SDS011;55732;52.248;-0.844;2022-07-04T01:20:52;3.80;;;2.00;;
62925;SDS011;55732;52.248;-0.844;2022-07-04T01:23:18;5.00;;;2.20;;
62925;SDS011;55732;52.248;-0.844;2022-07-04T01:25:43;4.20;;;2.10;;
62925;SDS011;55732;52.248;-0.844;2022-07-04T01:28:09;2.80;;;2.10;;
62925;SDS011;55732;52.248;-0.844;2022-07-04T01:30:35;3.20;;;2.00;;
62925;SDS011;55732;52.248;-0.844;2022-07-04T01:33:02;4.10;;;2.00;;
62925;SDS011;55732;52.248;-0.844;2022-07-04T01:35:27;3.70;;;2.20;;
62925;SDS011;55732;52.248;-0.844;2022-07-04T01:37:53;2.40;;;1.90;;
62925;SDS011;55732;52.248;-0.844;2022-07-04T01:40:18;4.60;;;2.30;;
62925;SDS011;55732;52.248;-0.844;2022-07-04T01:42:44;3.10;;;2.30;;
62925;SDS011;55732;52.248;-0.844;2022-07-04T01:45:10;3.70;;;2.20;;
62925;SDS011;55732;52.248;-0.844;2022-07-04T01:47:36;5.20;;;2.10;;
62925;SDS011;55732;52.248;-0.844;2022-07-04T01:50:04;2.70;;;1.90;;
62925;SDS011;55732;52.248;-0.844;2022-07-04T01:52:30;4.90;;;2.20;;
62925;SDS011;55732;52.248;-0.844;2022-07-04T01:54:57;3.30;;;2.20;;
62925;SDS011;55732;52.248;-0.844;2022-07-04T01:57:22;2.30;;;2.00;;
62925;SDS011;55732;52.248;-0.844;2022-07-04T01:59:48;4.10;;;2.30;;
62925;SDS011;55732;52.248;-0.844;2022-07-04T02:02:32;4.00;;;2.40;;
62925;SDS011;55732;52.248;-0.844;2022-07-04T02:04:58;4.60;;;2.10;;
62925;SDS011;55732;52.248;-0.844;2022-07-04T02:07:24;2.40;;;2.10;;
62925;SDS011;55732;52.248;-0.844;2022-07-04T02:09:50;3.40;;;2.10;;
62925;SDS011;55732;52.248;-0.844;2022-07-04T02:12:15;3.90;;;2.10;;
62925;SDS011;55732;52.248;-0.844;2022-07-04T02:14:59;6.90;;;2.90;;
62925;SDS011;55732;52.248;-0.844;2022-07-04T02:17:25;3.70;;;2.10;;
62925;SDS011;55732;52.248;-0.844;2022-07-04T02:19:50;3.60;;;2.10;;
62925;SDS011;55732;52.248;-0.844;2022-07-04T02:22:16;4.40;;;2.10;;
62925;SDS011;55732;52.248;-0.844;2022-07-04T02:24:41;4.00;;;2.20;;
62925;SDS011;55732;52.248;-0.844;2022-07-04T02:27:07;4.10;;;2.30;;
62925;SDS011;55732;52.248;-0.844;2022-07-04T02:29:33;4.10;;;2.40;;
62925;SDS011;55732;52.248;-0.844;2022-07-04T02:31:59;3.40;;;2.00;;
62925;SDS011;55732;52.248;-0.844;2022-07-04T02:34:25;3.80;;;2.10;;
62925;SDS011;55732;52.248;-0.844;2022-07-04T02:36:51;2.50;;;2.00;;
62925;SDS011;55732;52.248;-0.844;2022-07-04T02:39:16;6.20;;;1.80;;
62925;SDS011;55732;52.248;-0.844;2022-07-04T02:41:42;5.50;;;2.00;;
62925;SDS011;55732;52.248;-0.844;2022-07-04T02:44:07;2.80;;;1.90;;
62925;SDS011;55732;52.248;-0.844;2022-07-04T02:46:33;3.50;;;1.80;;
62925;SDS011;55732;52.248;-0.844;2022-07-04T02:48:59;3.80;;;2.20;;
62925;SDS011;55732;52.248;-0.844;2022-07-04T02:51:24;2.90;;;1.80;;
62925;SDS011;55732;52.248;-0.844;2022-07-04T02:53:50;5.10;;;1.90;;
62925;SDS011;55732;52.248;-0.844;2022-07-04T02:56:15;2.00;;;1.60;;
62925;SDS011;55732;52.248;-0.844;2022-07-04T02:58:41;2.70;;;2.00;;
62925;SDS011;55732;52.248;-0.844;2022-07-04T03:01:06;2.50;;;1.60;;
62925;SDS011;55732;52.248;-0.844;2022-07-04T03:03:32;2.40;;;1.90;;
62925;SDS011;55732;52.248;-0.844;2022-07-04T03:05:58;2.10;;;1.60;;
62925;SDS011;55732;52.248;-0.844;2022-07-04T03:08:23;3.20;;;1.70;;
62925;SDS011;55732;52.248;-0.844;2022-07-04T03:10:49;1.90;;;1.60;;
62925;SDS011;55732;52.248;-0.844;2022-07-04T03:13:16;2.50;;;2.00;;
62925;SDS011;55732;52.248;-0.844;2022-07-04T03:15:42;2.50;;;1.70;;
62925;SDS011;55732;52.248;-0.844;2022-07-04T03:18:07;3.80;;;1.60;;
62925;SDS011;55732;52.248;-0.844;2022-07-04T03:20:32;4.60;;;1.60;;
62925;SDS011;55732;52.248;-0.844;2022-07-04T03:22:58;2.70;;;1.60;;
62925;SDS011;55732;52.248;-0.844;2022-07-04T03:25:23;2.90;;;1.60;;
62925;SDS011;55732;52.248;-0.844;2022-07-04T03:27:49;4.00;;;1.80;;
62925;SDS011;55732;52.248;-0.844;2022-07-04T03:30:15;3.80;;;1.60;;
62925;SDS011;55732;52.248;-0.844;2022-07-04T03:32:40;2.10;;;1.60;;
62925;SDS011;55732;52.248;-0.844;2022-07-04T03:35:05;2.60;;;1.60;;
62925;SDS011;55732;52.248;-0.844;2022-07-04T03:37:31;3.00;;;1.80;;
62925;SDS011;55732;52.248;-0.844;2022-07-04T03:39:57;2.90;;;1.80;;
62925;SDS011;55732;52.248;-0.844;2022-07-04T03:42:22;1.70;;;1.50;;
62925;SDS011;55732;52.248;-0.844;2022-07-04T03:44:48;1.90;;;1.60;;
62925;SDS011;55732;52.248;-0.844;2022-07-04T03:47:13;5.00;;;1.70;;
62925;SDS011;55732;52.248;-0.844;2022-07-04T03:49:39;1.80;;;1.60;;
62925;SDS011;55732;52.248;-0.844;2022-07-04T03:52:05;2.10;;;1.70;;
62925;SDS011;55732;52.248;-0.844;2022-07-04T03:54:30;2.20;;;1.60;;
62925;SDS011;55732;52.248;-0.844;2022-07-04T03:56:56;1.60;;;1.50;;
62925;SDS011;55732;52.248;-0.844;2022-07-04T03:59:21;4.30;;;1.80;;
62925;SDS011;55732;52.248;-0.844;2022-07-04T04:01:47;2.00;;;1.50;;
62925;SDS011;55732;52.248;-0.844;2022-07-04T04:04:12;3.20;;;1.70;;
62925;SDS011;55732;52.248;-0.844;2022-07-04T04:06:56;4.90;;;1.60;;
62925;SDS011;55732;52.248;-0.844;2022-07-04T04:09:22;1.50;;;1.40;;
62925;SDS011;55732;52.248;-0.844;2022-07-04T04:11:49;1.50;;;1.40;;
62925;SDS011;55732;52.248;-0.844;2022-07-04T04:14:15;2.30;;;1.50;;
62925;SDS011;55732;52.248;-0.844;2022-07-04T04:16:41;3.00;;;1.70;;
62925;SDS011;55732;52.248;-0.844;2022-07-04T04:19:07;3.00;;;1.30;;
62925;SDS011;55732;52.248;-0.844;2022-07-04T04:21:33;3.30;;;1.50;;
62925;SDS011;55732;52.248;-0.844;2022-07-04T04:23:59;2.20;;;1.20;;
62925;SDS011;55732;52.248;-0.844;2022-07-04T04:26:24;3.00;;;1.60;;
62925;SDS011;55732;52.248;-0.844;2022-07-04T04:28:49;1.70;;;1.20;;
62925;SDS011;55732;52.248;-0.844;2022-07-04T04:31:15;1.40;;;1.30;;
62925;SDS011;55732;52.248;-0.844;2022-07-04T04:33:42;1.70;;;1.40;;
62925;SDS011;55732;52.248;-0.844;2022-07-04T04:36:07;2.50;;;1.60;;
62925;SDS011;55732;52.248;-0.844;2022-07-04T04:38:33;1.30;;;1.20;;
62925;SDS011;55732;52.248;-0.844;2022-07-04T04:40:58;2.70;;;1.50;;
62925;SDS011;55732;52.248;-0.844;2022-07-04T04:43:23;1.50;;;1.40;;
62925;SDS011;55732;52.248;-0.844;2022-07-04T04:45:49;1.50;;;1.40;;
62925;SDS011;55732;52.248;-0.844;2022-07-04T04:48:14;2.00;;;1.40;;
62925;SDS011;55732;52.248;-0.844;2022-07-04T04:50:40;2.10;;;1.60;;
62925;SDS011;55732;52.248;-0.844;2022-07-04T04:53:06;1.50;;;1.40;;
62925;SDS011;55732;52.248;-0.844;2022-07-04T04:55:31;2.30;;;1.20;;
62925;SDS011;55732;52.248;-0.844;2022-07-04T04:57:57;2.10;;;0.90;;
62925;SDS011;55732;52.248;-0.844;2022-07-04T05:00:22;2.50;;;1.50;;
62925;SDS011;55732;52.248;-0.844;2022-07-04T05:02:48;2.60;;;1.30;;
62925;SDS011;55732;52.248;-0.844;2022-07-04T05:05:13;2.80;;;1.40;;
62925;SDS011;55732;52.248;-0.844;2022-07-04T05:07:39;2.90;;;1.40;;
62925;SDS011;55732;52.248;-0.844;2022-07-04T05:10:04;1.20;;;1.10;;
62925;SDS011;55732;52.248;-0.844;2022-07-04T05:12:30;1.60;;;1.30;;
62925;SDS011;55732;52.248;-0.844;2022-07-04T05:14:56;2.20;;;1.30;;
62925;SDS011;55732;52.248;-0.844;2022-07-04T05:17:21;2.70;;;1.30;;
62925;SDS011;55732;52.248;-0.844;2022-07-04T05:19:47;2.20;;;1.50;;
62925;SDS011;55732;52.248;-0.844;2022-07-04T05:22:13;1.70;;;1.30;;
62925;SDS011;55732;52.248;-0.844;2022-07-04T05:24:39;2.20;;;1.40;;
62925;SDS011;55732;52.248;-0.844;2022-07-04T05:27:06;5.00;;;1.50;;
62925;SDS011;55732;52.248;-0.844;2022-07-04T05:29:32;1.60;;;1.50;;
62925;SDS011;55732;52.248;-0.844;2022-07-04T05:31:57;2.80;;;1.30;;
62925;SDS011;55732;52.248;-0.844;2022-07-04T05:34:23;3.70;;;1.50;;
62925;SDS011;55732;52.248;-0.844;2022-07-04T05:36:48;2.60;;;1.30;;
62925;SDS011;55732;52.248;-0.844;2022-07-04T05:39:14;5.70;;;1.40;;
62925;SDS011;55732;52.248;-0.844;2022-07-04T05:41:39;1.50;;;0.90;;
62925;SDS011;55732;52.248;-0.844;2022-07-04T05:44:05;1.80;;;1.20;;
62925;SDS011;55732;52.248;-0.844;2022-07-04T05:46:30;2.90;;;1.00;;
62925;SDS011;55732;52.248;-0.844;2022-07-04T05:48:55;3.40;;;1.40;;
62925;SDS011;55732;52.248;-0.844;2022-07-04T05:51:21;6.20;;;1.30;;
62925;SDS011;55732;52.248;-0.844;2022-07-04T05:53:47;1.80;;;1.10;;
62925;SDS011;55732;52.248;-0.844;2022-07-04T05:56:12;5.40;;;1.70;;
62925;SDS011;55732;52.248;-0.844;2022-07-04T05:58:38;1.10;;;1.00;;
62925;SDS011;55732;52.248;-0.844;2022-07-04T06:01:04;2.60;;;1.30;;
62925;SDS011;55732;52.248;-0.844;2022-07-04T06:03:29;3.30;;;1.30;;
62925;SDS011;55732;52.248;-0.844;2022-07-04T06:05:55;1.60;;;1.00;;
62925;SDS011;55732;52.248;-0.844;2022-07-04T06:08:20;1.20;;;1.00;;
62925;SDS011;55732;52.248;-0.844;2022-07-04T06:10:47;2.70;;;1.40;;
62925;SDS011;55732;52.248;-0.844;2022-07-04T06:13:14;4.00;;;1.00;;
62925;SDS011;55732;52.248;-0.844;2022-07-04T06:15:39;2.90;;;1.00;;
62925;SDS011;55732;52.248;-0.844;2022-07-04T06:18:05;2.30;;;1.00;;
62925;SDS011;55732;52.248;-0.844;2022-07-04T06:20:30;2.60;;;1.00;;
62925;SDS011;55732;52.248;-0.844;2022-07-04T06:22:56;1.20;;;1.00;;
62925;SDS011;55732;52.248;-0.844;2022-07-04T06:25:21;0.80;;;0.80;;
62925;SDS011;55732;52.248;-0.844;2022-07-04T06:27:47;2.40;;;1.30;;
62925;SDS011;55732;52.248;-0.844;2022-07-04T06:30:14;1.80;;;1.10;;
62925;SDS011;55732;52.248;-0.844;2022-07-04T06:32:44;3.10;;;1.10;;
62925;SDS011;55732;52.248;-0.844;2022-07-04T06:35:17;2.20;;;1.00;;
62925;SDS011;55732;52.248;-0.844;2022-07-04T06:38:03;0.90;;;0.90;;
62925;SDS011;55732;52.248;-0.844;2022-07-04T06:40:29;3.00;;;1.10;;
62925;SDS011;55732;52.248;-0.844;2022-07-04T06:42:54;1.60;;;1.30;;
62925;SDS011;55732;52.248;-0.844;2022-07-04T06:45:20;3.60;;;1.40;;
62925;SDS011;55732;52.248;-0.844;2022-07-04T06:47:45;5.10;;;1.10;;
62925;SDS011;55732;52.248;-0.844;2022-07-04T06:50:11;4.40;;;1.40;;
62925;SDS011;55732;52.248;-0.844;2022-07-04T06:52:37;1.50;;;1.30;;
62925;SDS011;55732;52.248;-0.844;2022-07-04T06:55:03;5.20;;;1.50;;
62925;SDS011;55732;52.248;-0.844;2022-07-04T06:57:30;3.10;;;1.20;;
62925;SDS011;55732;52.248;-0.844;2022-07-04T06:59:55;1.30;;;1.10;;
62925;SDS011;55732;52.248;-0.844;2022-07-04T07:02:21;1.80;;;1.30;;
62925;SDS011;55732;52.248;-0.844;2022-07-04T07:04:46;3.00;;;1.20;;
62925;SDS011;55732;52.248;-0.844;2022-07-04T07:07:11;2.60;;;1.50;;
62925;SDS011;55732;52.248;-0.844;2022-07-04T07:09:37;2.10;;;1.30;;
62925;SDS011;55732;52.248;-0.844;2022-07-04T07:12:02;5.10;;;1.20;;
62925;SDS011;55732;52.248;-0.844;2022-07-04T07:14:28;3.80;;;1.30;;
62925;SDS011;55732;52.248;-0.844;2022-07-04T07:16:54;4.10;;;1.10;;
62925;SDS011;55732;52.248;-0.844;2022-07-04T07:19:20;2.00;;;1.20;;
62925;SDS011;55732;52.248;-0.844;2022-07-04T07:21:45;4.00;;;1.20;;
62925;SDS011;55732;52.248;-0.844;2022-07-04T07:24:11;1.60;;;1.00;;
62925;SDS011;55732;52.248;-0.844;2022-07-04T07:26:36;2.20;;;1.20;;
62925;SDS011;55732;52.248;-0.844;2022-07-04T07:29:02;1.90;;;1.20;;
62925;SDS011;55732;52.248;-0.844;2022-07-04T07:31:27;7.50;;;1.20;;
62925;SDS011;55732;52.248;-0.844;2022-07-04T07:33:53;1.60;;;1.00;;
62925;SDS011;55732;52.248;-0.844;2022-07-04T07:36:20;1.90;;;1.20;;
62925;SDS011;55732;52.248;-0.844;2022-07-04T07:38:45;2.50;;;1.10;;
62925;SDS011;55732;52.248;-0.844;2022-07-04T07:41:11;3.90;;;1.00;;
62925;SDS011;55732;52.248;-0.844;2022-07-04T07:43:37;2.20;;;1.20;;
62925;SDS011;55732;52.248;-0.844;2022-07-04T07:46:06;3.00;;;0.90;;
62925;SDS011;55732;52.248;-0.844;2022-07-04T07:48:33;1.50;;;1.00;;
62925;SDS011;55732;52.248;-0.844;2022-07-04T07:50:59;2.80;;;1.20;;
62925;SDS011;55732;52.248;-0.844;2022-07-04T07:53:24;4.60;;;1.30;;
62925;SDS011;55732;52.248;-0.844;2022-07-04T07:55:50;1.20;;;1.10;;
62925;SDS011;55732;52.248;-0.844;2022-07-04T07:58:16;2.80;;;1.40;;
62925;SDS011;55732;52.248;-0.844;2022-07-04T08:00:41;2.60;;;1.30;;
62925;SDS011;55732;52.248;-0.844;2022-07-04T08:03:07;2.10;;;1.10;;
62925;SDS011;55732;52.248;-0.844;2022-07-04T08:05:51;4.10;;;1.20;;
62925;SDS011;55732;52.248;-0.844;2022-07-04T08:08:16;3.00;;;1.50;;
62925;SDS011;55732;52.248;-0.844;2022-07-04T08:10:42;2.60;;;1.20;;
62925;SDS011;55732;52.248;-0.844;2022-07-04T08:13:07;2.30;;;1.10;;
62925;SDS011;55732;52.248;-0.844;2022-07-04T08:15:33;3.80;;;1.50;;
62925;SDS011;55732;52.248;-0.844;2022-07-04T08:17:59;3.80;;;1.40;;
62925;SDS011;55732;52.248;-0.844;2022-07-04T08:20:25;2.00;;;1.20;;
62925;SDS011;55732;52.248;-0.844;2022-07-04T08:22:50;2.50;;;1.30;;
62925;SDS011;55732;52.248;-0.844;2022-07-04T08:25:16;1.50;;;1.40;;
62925;SDS011;55732;52.248;-0.844;2022-07-04T08:27:42;4.40;;;1.40;;
62925;SDS011;55732;52.248;-0.844;2022-07-04T08:30:08;2.00;;;1.20;;
62925;SDS011;55732;52.248;-0.844;2022-07-04T08:32:33;5.80;;;1.30;;
62925;SDS011;55732;52.248;-0.844;2022-07-04T08:34:59;0.90;;;0.90;;
62925;SDS011;55732;52.248;-0.844;2022-07-04T08:37:24;2.50;;;1.10;;
62925;SDS011;55732;52.248;-0.844;2022-07-04T08:39:50;2.10;;;1.00;;
62925;SDS011;55732;52.248;-0.844;2022-07-04T08:42:17;0.90;;;0.90;;
62925;SDS011;55732;52.248;-0.844;2022-07-04T08:44:46;2.50;;;1.20;;
62925;SDS011;55732;52.248;-0.844;2022-07-04T08:47:20;2.00;;;1.10;;
62925;SDS011;55732;52.248;-0.844;2022-07-04T08:49:55;3.50;;;1.00;;
62925;SDS011;55732;52.248;-0.844;2022-07-04T08:52:35;2.60;;;1.10;;
62925;SDS011;55732;52.248;-0.844;2022-07-04T08:55:03;0.90;;;0.80;;
62925;SDS011;55732;52.248;-0.844;2022-07-04T08:57:49;1.70;;;1.00;;
62925;SDS011;55732;52.248;-0.844;2022-07-04T09:00:34;1.70;;;1.00;;
62925;SDS011;55732;52.248;-0.844;2022-07-04T09:03:01;2.10;;;0.80;;
62925;SDS011;55732;52.248;-0.844;2022-07-04T09:05:28;1.60;;;0.70;;
62925;SDS011;55732;52.248;-0.844;2022-07-04T09:07:54;0.70;;;0.70;;
62925;SDS011;55732;52.248;-0.844;2022-07-04T09:10:20;1.40;;;0.80;;
62925;SDS011;55732;52.248;-0.844;2022-07-04T09:12:47;2.90;;;0.90;;
62925;SDS011;55732;52.248;-0.844;2022-07-04T09:17:40;2.20;;;1.00;;
62925;SDS011;55732;52.248;-0.844;2022-07-04T09:22:38;2.10;;;0.70;;
62925;SDS011;55732;52.248;-0.844;2022-07-04T09:25:04;1.90;;;0.70;;
62925;SDS011;55732;52.248;-0.844;2022-07-04T09:30:00;3.40;;;1.00;;
62925;SDS011;55732;52.248;-0.844;2022-07-04T09:35:30;4.50;;;1.10;;
62925;SDS011;55732;52.248;-0.844;2022-07-04T09:38:00;2.60;;;0.90;;
62925;SDS011;55732;52.248;-0.844;2022-07-04T09:40:33;1.70;;;1.20;;
62925;SDS011;55732;52.248;-0.844;2022-07-04T09:43:24;1.10;;;1.00;;
62925;SDS011;55732;52.248;-0.844;2022-07-04T09:45:57;1.10;;;1.00;;
62925;SDS011;55732;52.248;-0.844;2022-07-04T09:48:25;2.00;;;0.80;;
62925;SDS011;55732;52.248;-0.844;2022-07-04T09:50:51;1.50;;;0.90;;
62925;SDS011;55732;52.248;-0.844;2022-07-04T09:53:17;3.70;;;1.10;;
62925;SDS011;55732;52.248;-0.844;2022-07-04T09:55:43;1.00;;;1.00;;
62925;SDS011;55732;52.248;-0.844;2022-07-04T09:58:11;3.50;;;1.10;;
62925;SDS011;55732;52.248;-0.844;2022-07-04T10:00:40;1.40;;;1.00;;
62925;SDS011;55732;52.248;-0.844;2022-07-04T10:06:07;1.90;;;1.00;;
62925;SDS011;55732;52.248;-0.844;2022-07-04T10:08:36;4.40;;;1.40;;
62925;SDS011;55732;52.248;-0.844;2022-07-04T10:11:03;3.10;;;1.20;;
62925;SDS011;55732;52.248;-0.844;2022-07-04T10:15:56;2.80;;;1.30;;
62925;SDS011;55732;52.248;-0.844;2022-07-04T10:18:23;1.70;;;1.10;;
62925;SDS011;55732;52.248;-0.844;2022-07-04T10:20:50;2.40;;;1.40;;
62925;SDS011;55732;52.248;-0.844;2022-07-04T10:25:43;1.80;;;1.20;;
62925;SDS011;55732;52.248;-0.844;2022-07-04T10:28:13;3.70;;;1.10;;
62925;SDS011;55732;52.248;-0.844;2022-07-04T10:30:40;3.00;;;1.20;;
62925;SDS011;55732;52.248;-0.844;2022-07-04T10:33:07;1.40;;;1.20;;
62925;SDS011;55732;52.248;-0.844;2022-07-04T10:38:18;1.80;;;1.10;;
62925;SDS011;55732;52.248;-0.844;2022-07-04T10:40:48;3.70;;;1.00;;
62925;SDS011;55732;52.248;-0.844;2022-07-04T10:48:35;1.00;;;1.00;;
62925;SDS011;55732;52.248;-0.844;2022-07-04T10:51:05;1.20;;;1.10;;
62925;SDS011;55732;52.248;-0.844;2022-07-04T10:53:32;2.40;;;1.10;;
62925;SDS011;55732;52.248;-0.844;2022-07-04T11:01:16;4.40;;;1.30;;
62925;SDS011;55732;52.248;-0.844;2022-07-04T11:03:49;2.50;;;1.10;;
62925;SDS011;55732;52.248;-0.844;2022-07-04T11:11:47;3.40;;;1.30;;
62925;SDS011;55732;52.248;-0.844;2022-07-04T11:14:30;1.60;;;1.40;;
62925;SDS011;55732;52.248;-0.844;2022-07-04T11:17:40;4.00;;;1.30;;
62925;SDS011;55732;52.248;-0.844;2022-07-04T11:20:02;1.30;;;1.20;;
62925;SDS011;55732;52.248;-0.844;2022-07-04T11:22:31;4.90;;;1.40;;
62925;SDS011;55732;52.248;-0.844;2022-07-04T11:24:57;2.80;;;1.20;;
62925;SDS011;55732;52.248;-0.844;2022-07-04T11:27:22;1.60;;;1.20;;
62925;SDS011;55732;52.248;-0.844;2022-07-04T11:29:51;1.40;;;1.10;;
62925;SDS011;55732;52.248;-0.844;2022-07-04T11:32:17;1.50;;;1.30;;
62925;SDS011;55732;52.248;-0.844;2022-07-04T11:34:43;3.00;;;1.40;;
62925;SDS011;55732;52.248;-0.844;2022-07-04T11:37:09;2.30;;;1.20;;
62925;SDS011;55732;52.248;-0.844;2022-07-04T11:39:35;1.60;;;1.30;;
62925;SDS011;55732;52.248;-0.844;2022-07-04T11:42:00;2.50;;;1.30;;
62925;SDS011;55732;52.248;-0.844;2022-07-04T11:44:44;1.40;;;1.30;;
62925;SDS011;55732;52.248;-0.844;2022-07-04T11:47:31;2.10;;;1.10;;
62925;SDS011;55732;52.248;-0.844;2022-07-04T11:50:03;2.50;;;1.50;;
62925;SDS011;55732;52.248;-0.844;2022-07-04T11:52:38;1.60;;;1.10;;
62925;SDS011;55732;52.248;-0.844;2022-07-04T11:55:06;2.50;;;1.30;;
62925;SDS011;55732;52.248;-0.844;2022-07-04T11:57:38;1.70;;;1.00;;
62925;SDS011;55732;52.248;-0.844;2022-07-04T12:00:06;1.30;;;1.20;;
62925;SDS011;55732;52.248;-0.844;2022-07-04T12:02:35;4.60;;;1.10;;
62925;SDS011;55732;52.248;-0.844;2022-07-04T12:05:01;1.50;;;1.30;;
62925;SDS011;55732;52.248;-0.844;2022-07-04T12:07:29;2.30;;;1.20;;
62925;SDS011;55732;52.248;-0.844;2022-07-04T12:10:10;4.40;;;1.40;;
62925;SDS011;55732;52.248;-0.844;2022-07-04T12:12:53;2.30;;;1.50;;
62925;SDS011;55732;52.248;-0.844;2022-07-04T12:15:46;3.70;;;1.10;;
62925;SDS011;55732;52.248;-0.844;2022-07-04T12:18:25;2.40;;;1.00;;
62925;SDS011;55732;52.248;-0.844;2022-07-04T12:23:37;2.30;;;1.30;;
62925;SDS011;55732;52.248;-0.844;2022-07-04T12:26:05;1.40;;;1.00;;
62925;SDS011;55732;52.248;-0.844;2022-07-04T12:28:34;2.00;;;1.20;;
62925;SDS011;55732;52.248;-0.844;2022-07-04T12:31:01;3.30;;;1.50;;
62925;SDS011;55732;52.248;-0.844;2022-07-04T12:33:28;9.40;;;1.60;;
62925;SDS011;55732;52.248;-0.844;2022-07-04T12:36:03;2.80;;;1.10;;
62925;SDS011;55732;52.248;-0.844;2022-07-04T12:38:36;4.40;;;1.10;;
62925;SDS011;55732;52.248;-0.844;2022-07-04T12:41:03;3.10;;;1.50;;
62925;SDS011;55732;52.248;-0.844;2022-07-04T12:46:11;3.50;;;1.10;;
62925;SDS011;55732;52.248;-0.844;2022-07-04T12:48:39;2.50;;;1.10;;
62925;SDS011;55732;52.248;-0.844;2022-07-04T12:51:24;1.70;;;1.20;;
62925;SDS011;55732;52.248;-0.844;2022-07-04T12:53:52;1.20;;;1.10;;
62925;SDS011;55732;52.248;-0.844;2022-07-04T12:56:35;3.40;;;1.10;;
62925;SDS011;55732;52.248;-0.844;2022-07-04T12:59:03;2.40;;;1.30;;
62925;SDS011;55732;52.248;-0.844;2022-07-04T13:01:30;3.20;;;1.10;;
62925;SDS011;55732;52.248;-0.844;2022-07-04T13:03:56;4.30;;;1.50;;
62925;SDS011;55732;52.248;-0.844;2022-07-04T13:06:22;1.30;;;1.20;;
62925;SDS011;55732;52.248;-0.844;2022-07-04T13:08:48;3.00;;;1.30;;
62925;SDS011;55732;52.248;-0.844;2022-07-04T13:11:14;2.30;;;1.00;;
62925;SDS011;55732;52.248;-0.844;2022-07-04T13:13:58;1.60;;;0.90;;
62925;SDS011;55732;52.248;-0.844;2022-07-04T13:16:24;2.50;;;1.10;;
62925;SDS011;55732;52.248;-0.844;2022-07-04T13:18:49;2.60;;;1.10;;
62925;SDS011;55732;52.248;-0.844;2022-07-04T13:21:15;1.60;;;1.10;;
62925;SDS011;55732;52.248;-0.844;2022-07-04T13:23:40;3.00;;;1.10;;
62925;SDS011;55732;52.248;-0.844;2022-07-04T13:26:06;1.30;;;1.10;;
62925;SDS011;55732;52.248;-0.844;2022-07-04T13:28:31;5.50;;;1.20;;
62925;SDS011;55732;52.248;-0.844;2022-07-04T13:30:57;2.40;;;1.10;;
62925;SDS011;55732;52.248;-0.844;2022-07-04T13:33:22;2.20;;;1.10;;
62925;SDS011;55732;52.248;-0.844;2022-07-04T13:35:48;2.20;;;1.20;;
62925;SDS011;55732;52.248;-0.844;2022-07-04T13:38:13;1.40;;;1.30;;
62925;SDS011;55732;52.248;-0.844;2022-07-04T13:40:43;3.90;;;1.10;;
62925;SDS011;55732;52.248;-0.844;2022-07-04T13:43:10;1.20;;;1.10;;
62925;SDS011;55732;52.248;-0.844;2022-07-04T13:45:36;2.30;;;1.10;;
62925;SDS011;55732;52.248;-0.844;2022-07-04T13:48:06;0.70;;;0.70;;
62925;SDS011;55732;52.248;-0.844;2022-07-04T13:50:32;1.30;;;1.10;;
62925;SDS011;55732;52.248;-0.844;2022-07-04T13:53:02;1.80;;;0.90;;
62925;SDS011;55732;52.248;-0.844;2022-07-04T13:55:28;2.40;;;1.30;;
62925;SDS011;55732;52.248;-0.844;2022-07-04T13:57:54;2.50;;;1.20;;
62925;SDS011;55732;52.248;-0.844;2022-07-04T14:00:19;1.30;;;1.20;;
62925;SDS011;55732;52.248;-0.844;2022-07-04T14:02:44;1.50;;;1.40;;
62925;SDS011;55732;52.248;-0.844;2022-07-04T14:05:10;2.20;;;1.30;;
62925;SDS011;55732;52.248;-0.844;2022-07-04T14:07:35;2.60;;;1.30;;
62925;SDS011;55732;52.248;-0.844;2022-07-04T14:10:01;2.30;;;1.20;;
62925;SDS011;55732;52.248;-0.844;2022-07-04T14:12:27;1.00;;;1.00;;
62925;SDS011;55732;52.248;-0.844;2022-07-04T14:14:53;1.50;;;1.10;;
62925;SDS011;55732;52.248;-0.844;2022-07-04T14:17:18;1.20;;;1.10;;
62925;SDS011;55732;52.248;-0.844;2022-07-04T14:19:44;1.40;;;1.30;;
62925;SDS011;55732;52.248;-0.844;2022-07-04T14:22:09;2.20;;;1.20;;
62925;SDS011;55732;52.248;-0.844;2022-07-04T14:24:35;1.50;;;1.40;;
62925;SDS011;55732;52.248;-0.844;2022-07-04T14:27:00;2.20;;;1.20;;
62925;SDS011;55732;52.248;-0.844;2022-07-04T14:29:26;1.30;;;0.90;;
62925;SDS011;55732;52.248;-0.844;2022-07-04T14:31:52;2.20;;;1.40;;
62925;SDS011;55732;52.248;-0.844;2022-07-04T14:34:18;1.50;;;1.30;;
62925;SDS011;55732;52.248;-0.844;2022-07-04T14:36:43;1.40;;;1.30;;
62925;SDS011;55732;52.248;-0.844;2022-07-04T14:39:09;1.70;;;1.30;;
62925;SDS011;55732;52.248;-0.844;2022-07-04T14:41:34;1.60;;;1.20;;
62925;SDS011;55732;52.248;-0.844;2022-07-04T14:44:00;0.90;;;0.90;;
62925;SDS011;55732;52.248;-0.844;2022-07-04T14:46:26;1.30;;;1.00;;
62925;SDS011;55732;52.248;-0.844;2022-07-04T14:48:52;3.50;;;1.30;;
62925;SDS011;55732;52.248;-0.844;2022-07-04T14:51:18;1.90;;;1.30;;
62925;SDS011;55732;52.248;-0.844;2022-07-04T14:53:43;1.40;;;1.10;;
62925;SDS011;55732;52.248;-0.844;2022-07-04T14:56:10;4.00;;;1.40;;
62925;SDS011;55732;52.248;-0.844;2022-07-04T14:58:35;1.20;;;1.10;;
62925;SDS011;55732;52.248;-0.844;2022-07-04T15:01:01;1.20;;;1.10;;
62925;SDS011;55732;52.248;-0.844;2022-07-04T15:03:27;3.60;;;1.20;;
62925;SDS011;55732;52.248;-0.844;2022-07-04T15:05:52;1.30;;;1.20;;
62925;SDS011;55732;52.248;-0.844;2022-07-04T15:08:18;2.40;;;1.10;;
62925;SDS011;55732;52.248;-0.844;2022-07-04T15:10:43;2.00;;;1.10;;
62925;SDS011;55732;52.248;-0.844;2022-07-04T15:13:09;4.40;;;1.40;;
62925;SDS011;55732;52.248;-0.844;2022-07-04T15:15:35;1.50;;;1.20;;